sensor_id;sensor_type;location;lat;lon;timestamp;pressure;altitude;pressure_sealevel;temperature;humidity
54144;BME280;40050;47.324;18.792;2023-04-23T00:00:56;1001.56;;;11.62;57.05
54144;BME280;40050;47.324;18.792;2023-04-23T00:02:58;1001.53;;;11.58;57.10
54144;BME280;40050;47.324;18.792;2023-04-23T00:05:04;1001.48;;;11.53;57.28
54144;BME280;40050;47.324;18.792;2023-04-23T00:07:06;1001.55;;;11.50;57.51
54144;BME280;40050;47.324;18.792;2023-04-23T00:09:07;1001.57;;;11.49;57.72
54144;BME280;40050;47.324;18.792;2023-04-23T00:11:08;1001.51;;;11.44;57.88
54144;BME280;40050;47.324;18.792;2023-04-23T00:13:09;1001.55;;;11.43;57.92
54144;BME280;40050;47.324;18.792;2023-04-23T00:15:11;1001.49;;;11.40;57.96
54144;BME280;40050;47.324;18.792;2023-04-23T00:17:12;1001.59;;;11.40;58.06
54144;BME280;40050;47.324;18.792;2023-04-23T00:19:13;1001.51;;;11.33;58.14
54144;BME280;40050;47.324;18.792;2023-04-23T00:21:14;1001.55;;;11.30;58.19
54144;BME280;40050;47.324;18.792;2023-04-23T00:23:15;1001.59;;;11.24;58.46
54144;BME280;40050;47.324;18.792;2023-04-23T00:25:16;1001.53;;;11.12;58.78
54144;BME280;40050;47.324;18.792;2023-04-23T00:27:17;1001.48;;;11.07;58.81
54144;BME280;40050;47.324;18.792;2023-04-23T00:29:18;1001.46;;;11.06;59.17
54144;BME280;40050;47.324;18.792;2023-04-23T00:31:18;1001.50;;;11.06;59.48
54144;BME280;40050;47.324;18.792;2023-04-23T00:33:19;1001.52;;;11.04;59.40
54144;BME280;40050;47.324;18.792;2023-04-23T00:35:20;1001.50;;;11.04;59.32
54144;BME280;40050;47.324;18.792;2023-04-23T00:37:21;1001.43;;;11.01;59.30
54144;BME280;40050;47.324;18.792;2023-04-23T00:39:22;1001.42;;;11.03;59.53
54144;BME280;40050;47.324;18.792;2023-04-23T00:41:23;1001.47;;;11.03;59.58
54144;BME280;40050;47.324;18.792;2023-04-23T00:43:25;1001.49;;;11.03;59.43
54144;BME280;40050;47.324;18.792;2023-04-23T00:45:26;1001.47;;;11.03;59.51
54144;BME280;40050;47.324;18.792;2023-04-23T00:47:27;1001.47;;;11.00;59.38
54144;BME280;40050;47.324;18.792;2023-04-23T00:49:28;1001.48;;;10.97;59.61
54144;BME280;40050;47.324;18.792;2023-04-23T00:51:29;1001.45;;;10.95;59.53
54144;BME280;40050;47.324;18.792;2023-04-23T00:53:30;1001.26;;;10.80;59.60
54144;BME280;40050;47.324;18.792;2023-04-23T00:55:31;1001.43;;;10.95;59.55
54144;BME280;40050;47.324;18.792;2023-04-23T00:57:33;1001.48;;;10.95;59.49
54144;BME280;40050;47.324;18.792;2023-04-23T00:59:34;1001.46;;;10.90;59.47
54144;BME280;40050;47.324;18.792;2023-04-23T01:01:35;1001.49;;;10.89;59.68
54144;BME280;40050;47.324;18.792;2023-04-23T01:03:36;1001.43;;;10.85;59.68
54144;BME280;40050;47.324;18.792;2023-04-23T01:05:41;1001.44;;;10.85;59.76
54144;BME280;40050;47.324;18.792;2023-04-23T01:07:42;1001.41;;;10.82;59.84
54144;BME280;40050;47.324;18.792;2023-04-23T01:09:44;1001.45;;;10.85;59.85
54144;BME280;40050;47.324;18.792;2023-04-23T01:11:46;1001.39;;;10.80;59.80
54144;BME280;40050;47.324;18.792;2023-04-23T01:13:47;1001.40;;;10.79;59.85
54144;BME280;40050;47.324;18.792;2023-04-23T01:15:48;1001.44;;;10.79;59.92
54144;BME280;40050;47.324;18.792;2023-04-23T01:17:49;1001.38;;;10.75;59.91
54144;BME280;40050;47.324;18.792;2023-04-23T01:19:50;1001.37;;;10.75;59.85
54144;BME280;40050;47.324;18.792;2023-04-23T01:21:51;1001.11;;;10.57;59.72
54144;BME280;40050;47.324;18.792;2023-04-23T01:23:53;1001.40;;;10.78;59.56
54144;BME280;40050;47.324;18.792;2023-04-23T01:25:54;1001.35;;;10.78;59.41
54144;BME280;40050;47.324;18.792;2023-04-23T01:27:55;1001.34;;;10.77;59.28
54144;BME280;40050;47.324;18.792;2023-04-23T01:29:57;1001.35;;;10.78;59.29
54144;BME280;40050;47.324;18.792;2023-04-23T01:31:58;1001.37;;;10.73;59.26
54144;BME280;40050;47.324;18.792;2023-04-23T01:33:59;1001.31;;;10.68;59.16
54144;BME280;40050;47.324;18.792;2023-04-23T01:36:01;1001.38;;;10.65;59.04
54144;BME280;40050;47.324;18.792;2023-04-23T01:38:02;1001.29;;;10.59;58.96
54144;BME280;40050;47.324;18.792;2023-04-23T01:40:04;1001.34;;;10.58;59.31
54144;BME280;40050;47.324;18.792;2023-04-23T01:42:05;1001.29;;;10.54;59.62
54144;BME280;40050;47.324;18.792;2023-04-23T01:44:06;1001.32;;;10.52;59.73
54144;BME280;40050;47.324;18.792;2023-04-23T01:46:07;1001.28;;;10.48;59.67
54144;BME280;40050;47.324;18.792;2023-04-23T01:48:08;1001.30;;;10.45;59.61
54144;BME280;40050;47.324;18.792;2023-04-23T01:50:09;1001.31;;;10.42;59.84
54144;BME280;40050;47.324;18.792;2023-04-23T01:52:10;1001.30;;;10.40;59.77
54144;BME280;40050;47.324;18.792;2023-04-23T01:54:11;1001.37;;;10.37;59.81
54144;BME280;40050;47.324;18.792;2023-04-23T01:56:12;1001.32;;;10.35;59.89
54144;BME280;40050;47.324;18.792;2023-04-23T01:58:15;1001.27;;;10.31;59.78
54144;BME280;40050;47.324;18.792;2023-04-23T02:00:16;1001.35;;;10.27;59.92
54144;BME280;40050;47.324;18.792;2023-04-23T02:02:17;1001.20;;;10.23;59.91
54144;BME280;40050;47.324;18.792;2023-04-23T02:04:18;1001.20;;;10.25;59.89
54144;BME280;40050;47.324;18.792;2023-04-23T02:06:19;1001.17;;;10.24;60.13
54144;BME280;40050;47.324;18.792;2023-04-23T02:08:20;1001.17;;;10.23;60.05
54144;BME280;40050;47.324;18.792;2023-04-23T02:10:21;1001.13;;;10.19;60.15
54144;BME280;40050;47.324;18.792;2023-04-23T02:12:22;1001.04;;;10.10;60.16
54144;BME280;40050;47.324;18.792;2023-04-23T02:14:23;1001.16;;;10.15;60.30
54144;BME280;40050;47.324;18.792;2023-04-23T02:16:25;1001.11;;;10.10;60.40
54144;BME280;40050;47.324;18.792;2023-04-23T02:18:26;1001.05;;;10.06;60.33
54144;BME280;40050;47.324;18.792;2023-04-23T02:20:27;1000.99;;;10.01;60.37
54144;BME280;40050;47.324;18.792;2023-04-23T02:22:28;1001.08;;;10.05;60.38
54144;BME280;40050;47.324;18.792;2023-04-23T02:24:29;1001.09;;;10.04;60.60
54144;BME280;40050;47.324;18.792;2023-04-23T02:26:30;1001.08;;;10.04;60.64
54144;BME280;40050;47.324;18.792;2023-04-23T02:28:31;1001.06;;;10.02;60.63
54144;BME280;40050;47.324;18.792;2023-04-23T02:30:32;1001.05;;;9.99;60.54
54144;BME280;40050;47.324;18.792;2023-04-23T02:32:33;1001.05;;;9.99;60.59
54144;BME280;40050;47.324;18.792;2023-04-23T02:34:34;1001.07;;;9.99;60.70
54144;BME280;40050;47.324;18.792;2023-04-23T02:36:35;1000.92;;;9.89;60.92
54144;BME280;40050;47.324;18.792;2023-04-23T02:38:36;1001.12;;;9.96;60.90
54144;BME280;40050;47.324;18.792;2023-04-23T02:40:37;1001.09;;;9.94;60.82
54144;BME280;40050;47.324;18.792;2023-04-23T02:42:38;1001.05;;;9.92;60.96
54144;BME280;40050;47.324;18.792;2023-04-23T02:44:39;1001.04;;;9.89;60.91
54144;BME280;40050;47.324;18.792;2023-04-23T02:46:40;1001.03;;;9.87;60.93
54144;BME280;40050;47.324;18.792;2023-04-23T02:48:41;1001.05;;;9.83;60.87
54144;BME280;40050;47.324;18.792;2023-04-23T02:50:42;1001.02;;;9.83;60.88
54144;BME280;40050;47.324;18.792;2023-04-23T02:52:43;1000.95;;;9.81;60.80
54144;BME280;40050;47.324;18.792;2023-04-23T02:54:43;1001.01;;;9.84;60.78
54144;BME280;40050;47.324;18.792;2023-04-23T02:56:44;1001.01;;;9.84;60.64
54144;BME280;40050;47.324;18.792;2023-04-23T02:58:45;1001.03;;;9.81;60.72
54144;BME280;40050;47.324;18.792;2023-04-23T03:00:46;1001.00;;;9.79;60.71
54144;BME280;40050;47.324;18.792;2023-04-23T03:02:47;1000.93;;;9.74;60.68
54144;BME280;40050;47.324;18.792;2023-04-23T03:04:48;1000.98;;;9.75;60.61
54144;BME280;40050;47.324;18.792;2023-04-23T03:06:49;1000.92;;;9.72;60.59
54144;BME280;40050;47.324;18.792;2023-04-23T03:08:50;1000.96;;;9.72;60.81
54144;BME280;40050;47.324;18.792;2023-04-23T03:10:51;1000.91;;;9.68;61.08
54144;BME280;40050;47.324;18.792;2023-04-23T03:12:52;1000.96;;;9.67;61.21
54144;BME280;40050;47.324;18.792;2023-04-23T03:14:53;1000.96;;;9.67;61.21
54144;BME280;40050;47.324;18.792;2023-04-23T03:16:54;1000.94;;;9.65;61.29
54144;BME280;40050;47.324;18.792;2023-04-23T03:18:55;1000.94;;;9.62;61.22
54144;BME280;40050;47.324;18.792;2023-04-23T03:20:56;1000.93;;;9.59;61.09
54144;BME280;40050;47.324;18.792;2023-04-23T03:22:57;1000.93;;;9.58;61.10
54144;BME280;40050;47.324;18.792;2023-04-23T03:24:58;1001.00;;;9.58;60.99
54144;BME280;40050;47.324;18.792;2023-04-23T03:26:59;1000.97;;;9.56;61.26
54144;BME280;40050;47.324;18.792;2023-04-23T03:29:00;1000.99;;;9.53;61.40
54144;BME280;40050;47.324;18.792;2023-04-23T03:31:00;1001.02;;;9.50;61.38
54144;BME280;40050;47.324;18.792;2023-04-23T03:33:02;1001.05;;;9.48;61.30
54144;BME280;40050;47.324;18.792;2023-04-23T03:35:03;1001.05;;;9.44;61.24
54144;BME280;40050;47.324;18.792;2023-04-23T03:37:04;1001.02;;;9.36;61.31
54144;BME280;40050;47.324;18.792;2023-04-23T03:39:05;1001.01;;;9.33;61.41
54144;BME280;40050;47.324;18.792;2023-04-23T03:41:06;1001.06;;;9.33;61.62
54144;BME280;40050;47.324;18.792;2023-04-23T03:43:06;1001.05;;;9.31;61.91
54144;BME280;40050;47.324;18.792;2023-04-23T03:45:08;1001.02;;;9.28;61.97
54144;BME280;40050;47.324;18.792;2023-04-23T03:47:09;1001.07;;;9.29;61.92
54144;BME280;40050;47.324;18.792;2023-04-23T03:49:10;1000.96;;;9.14;61.89
54144;BME280;40050;47.324;18.792;2023-04-23T03:51:11;1001.07;;;9.28;61.92
54144;BME280;40050;47.324;18.792;2023-04-23T03:53:12;1001.09;;;9.27;62.00
54144;BME280;40050;47.324;18.792;2023-04-23T03:55:12;1001.10;;;9.27;61.89
54144;BME280;40050;47.324;18.792;2023-04-23T03:57:13;1001.07;;;9.24;61.97
54144;BME280;40050;47.324;18.792;2023-04-23T03:59:14;1001.09;;;9.24;61.90
54144;BME280;40050;47.324;18.792;2023-04-23T04:01:15;1001.09;;;9.25;62.08
54144;BME280;40050;47.324;18.792;2023-04-23T04:03:16;1001.11;;;9.25;62.13
54144;BME280;40050;47.324;18.792;2023-04-23T04:05:17;1001.09;;;9.22;62.22
54144;BME280;40050;47.324;18.792;2023-04-23T04:07:18;1001.08;;;9.22;62.25
54144;BME280;40050;47.324;18.792;2023-04-23T04:09:19;1001.19;;;9.25;62.25
54144;BME280;40050;47.324;18.792;2023-04-23T04:11:20;1001.17;;;9.26;62.23
54144;BME280;40050;47.324;18.792;2023-04-23T04:13:21;1000.91;;;9.11;62.18
54144;BME280;40050;47.324;18.792;2023-04-23T04:15:22;1001.18;;;9.30;62.29
54144;BME280;40050;47.324;18.792;2023-04-23T04:17:23;1001.01;;;9.22;62.22
54144;BME280;40050;47.324;18.792;2023-04-23T04:19:23;1001.15;;;9.35;62.14
54144;BME280;40050;47.324;18.792;2023-04-23T04:21:24;1001.14;;;9.34;62.18
54144;BME280;40050;47.324;18.792;2023-04-23T04:23:25;1001.17;;;9.37;62.41
54144;BME280;40050;47.324;18.792;2023-04-23T04:25:28;1001.26;;;9.41;62.38
54144;BME280;40050;47.324;18.792;2023-04-23T04:27:29;1001.22;;;9.42;62.43
54144;BME280;40050;47.324;18.792;2023-04-23T04:29:29;1001.24;;;9.44;62.42
54144;BME280;40050;47.324;18.792;2023-04-23T04:31:30;1001.24;;;9.46;62.69
54144;BME280;40050;47.324;18.792;2023-04-23T04:33:32;1001.24;;;9.48;62.87
54144;BME280;40050;47.324;18.792;2023-04-23T04:35:32;1001.23;;;9.49;62.66
54144;BME280;40050;47.324;18.792;2023-04-23T04:37:34;1001.29;;;9.50;62.82
54144;BME280;40050;47.324;18.792;2023-04-23T04:39:35;1001.32;;;9.50;62.85
54144;BME280;40050;47.324;18.792;2023-04-23T04:41:36;1001.33;;;9.50;62.92
54144;BME280;40050;47.324;18.792;2023-04-23T04:43:37;1001.35;;;9.51;62.84
54144;BME280;40050;47.324;18.792;2023-04-23T04:45:37;1001.39;;;9.54;62.95
54144;BME280;40050;47.324;18.792;2023-04-23T04:47:38;1001.05;;;9.33;63.09
54144;BME280;40050;47.324;18.792;2023-04-23T05:00:20;1001.42;;;9.60;64.03
54144;BME280;40050;47.324;18.792;2023-04-23T05:02:21;1001.37;;;9.56;64.30
54144;BME280;40050;47.324;18.792;2023-04-23T05:04:22;1001.42;;;9.66;64.88
54144;BME280;40050;47.324;18.792;2023-04-23T05:06:23;1001.45;;;9.75;65.01
54144;BME280;40050;47.324;18.792;2023-04-23T05:08:24;1001.47;;;9.82;65.72
54144;BME280;40050;47.324;18.792;2023-04-23T05:10:24;1001.55;;;9.93;65.98
54144;BME280;40050;47.324;18.792;2023-04-23T05:12:25;1001.53;;;10.00;65.50
54144;BME280;40050;47.324;18.792;2023-04-23T05:14:26;1001.56;;;10.08;65.74
54144;BME280;40050;47.324;18.792;2023-04-23T05:16:27;1001.52;;;10.17;65.73
54144;BME280;40050;47.324;18.792;2023-04-23T05:18:28;1001.56;;;10.28;65.79
54144;BME280;40050;47.324;18.792;2023-04-23T05:20:29;1001.57;;;10.37;66.11
54144;BME280;40050;47.324;18.792;2023-04-23T05:22:30;1001.31;;;10.34;65.14
54144;BME280;40050;47.324;18.792;2023-04-23T05:24:31;1001.51;;;10.59;64.71
54144;BME280;40050;47.324;18.792;2023-04-23T05:26:32;1001.49;;;10.69;65.01
54144;BME280;40050;47.324;18.792;2023-04-23T05:28:33;1001.50;;;10.78;64.67
54144;BME280;40050;47.324;18.792;2023-04-23T05:30:34;1001.53;;;10.89;65.25
54144;BME280;40050;47.324;18.792;2023-04-23T05:32:35;1001.59;;;10.98;65.44
54144;BME280;40050;47.324;18.792;2023-04-23T05:34:36;1001.65;;;11.13;65.26
54144;BME280;40050;47.324;18.792;2023-04-23T05:36:37;1001.61;;;11.29;65.43
54144;BME280;40050;47.324;18.792;2023-04-23T05:38:38;1001.64;;;11.46;65.56
54144;BME280;40050;47.324;18.792;2023-04-23T05:40:39;1001.62;;;11.58;65.72
54144;BME280;40050;47.324;18.792;2023-04-23T05:42:39;1001.65;;;11.76;65.74
54144;BME280;40050;47.324;18.792;2023-04-23T05:44:40;1001.62;;;11.93;65.32
54144;BME280;40050;47.324;18.792;2023-04-23T05:46:41;1001.61;;;12.11;65.07
54144;BME280;40050;47.324;18.792;2023-04-23T05:48:42;1001.38;;;12.24;64.22
54144;BME280;40050;47.324;18.792;2023-04-23T05:50:43;1001.52;;;12.50;63.24
54144;BME280;40050;47.324;18.792;2023-04-23T05:52:44;1001.54;;;12.71;63.05
54144;BME280;40050;47.324;18.792;2023-04-23T05:54:45;1001.58;;;12.92;62.78
54144;BME280;40050;47.324;18.792;2023-04-23T06:12:45;1001.64;;;14.75;56.94
54144;BME280;40050;47.324;18.792;2023-04-23T06:17:02;1001.60;;;15.11;54.77
54144;BME280;40050;47.324;18.792;2023-04-23T06:19:05;1001.62;;;15.29;54.46
54144;BME280;40050;47.324;18.792;2023-04-23T06:21:07;1001.68;;;15.51;54.31
54144;BME280;40050;47.324;18.792;2023-04-23T06:23:08;1001.18;;;15.35;53.94
54144;BME280;40050;47.324;18.792;2023-04-23T06:25:09;1001.70;;;15.81;54.98
54144;BME280;40050;47.324;18.792;2023-04-23T06:27:10;1001.65;;;15.94;53.02
54144;BME280;40050;47.324;18.792;2023-04-23T06:29:11;1001.61;;;16.16;53.12
54144;BME280;40050;47.324;18.792;2023-04-23T06:31:12;1001.68;;;16.34;52.69
54144;BME280;40050;47.324;18.792;2023-04-23T06:33:13;1001.58;;;16.50;53.04
54144;BME280;40050;47.324;18.792;2023-04-23T06:35:14;1001.60;;;16.74;51.98
54144;BME280;40050;47.324;18.792;2023-04-23T06:37:15;1001.49;;;16.83;52.22
54144;BME280;40050;47.324;18.792;2023-04-23T06:39:16;1001.57;;;17.06;51.79
54144;BME280;40050;47.324;18.792;2023-04-23T06:41:17;1001.57;;;17.24;52.45
54144;BME280;40050;47.324;18.792;2023-04-23T06:43:18;1001.57;;;17.41;52.03
54144;BME280;40050;47.324;18.792;2023-04-23T06:45:19;1001.61;;;17.59;52.46
54144;BME280;40050;47.324;18.792;2023-04-23T06:47:20;1001.53;;;17.78;48.77
54144;BME280;40050;47.324;18.792;2023-04-23T06:49:21;1001.56;;;17.89;48.46
54144;BME280;40050;47.324;18.792;2023-04-23T06:51:24;1001.58;;;18.02;47.69
54144;BME280;40050;47.324;18.792;2023-04-23T06:53:25;1001.57;;;18.19;47.19
54144;BME280;40050;47.324;18.792;2023-04-23T06:55:26;1001.56;;;18.41;47.67
54144;BME280;40050;47.324;18.792;2023-04-23T06:57:27;1001.56;;;18.54;47.07
54144;BME280;40050;47.324;18.792;2023-04-23T06:59:28;1001.51;;;18.73;47.42
54144;BME280;40050;47.324;18.792;2023-04-23T07:01:29;1001.58;;;18.95;45.83
54144;BME280;40050;47.324;18.792;2023-04-23T07:03:30;1001.49;;;19.02;46.24
54144;BME280;40050;47.324;18.792;2023-04-23T07:05:31;1001.22;;;19.03;45.45
54144;BME280;40050;47.324;18.792;2023-04-23T07:07:32;1001.52;;;19.32;45.39
54144;BME280;40050;47.324;18.792;2023-04-23T07:09:33;1001.47;;;19.43;44.43
54144;BME280;40050;47.324;18.792;2023-04-23T07:11:34;1001.47;;;19.50;43.87
54144;BME280;40050;47.324;18.792;2023-04-23T07:13:35;1001.42;;;19.64;44.15
54144;BME280;40050;47.324;18.792;2023-04-23T07:15:48;1001.38;;;19.83;43.08
54144;BME280;40050;47.324;18.792;2023-04-23T07:17:50;1001.39;;;20.03;42.11
54144;BME280;40050;47.324;18.792;2023-04-23T07:19:51;1001.37;;;20.12;40.58
54144;BME280;40050;47.324;18.792;2023-04-23T07:21:52;1001.39;;;20.01;37.79
54144;BME280;40050;47.324;18.792;2023-04-23T07:23:56;1001.39;;;20.18;38.62
54144;BME280;40050;47.324;18.792;2023-04-23T07:25:57;1001.40;;;20.35;38.98
54144;BME280;40050;47.324;18.792;2023-04-23T07:27:58;1001.42;;;20.48;38.95
54144;BME280;40050;47.324;18.792;2023-04-23T07:29:59;1001.44;;;20.60;38.31
54144;BME280;40050;47.324;18.792;2023-04-23T07:32:00;1001.41;;;20.71;37.36
54144;BME280;40050;47.324;18.792;2023-04-23T07:34:01;1001.38;;;20.92;37.40
54144;BME280;40050;47.324;18.792;2023-04-23T07:36:02;1001.27;;;20.97;36.70
54144;BME280;40050;47.324;18.792;2023-04-23T07:38:03;1001.38;;;21.15;36.93
54144;BME280;40050;47.324;18.792;2023-04-23T07:40:04;1001.31;;;21.01;35.47
54144;BME280;40050;47.324;18.792;2023-04-23T07:42:05;1001.33;;;21.19;35.80
54144;BME280;40050;47.324;18.792;2023-04-23T07:44:06;1001.28;;;21.33;36.11
54144;BME280;40050;47.324;18.792;2023-04-23T07:46:07;1001.29;;;21.47;36.61
54144;BME280;40050;47.324;18.792;2023-04-23T07:48:08;1001.30;;;21.67;36.13
54144;BME280;40050;47.324;18.792;2023-04-23T07:50:11;1001.31;;;21.75;36.36
54144;BME280;40050;47.324;18.792;2023-04-23T07:52:12;1001.37;;;21.91;37.27
54144;BME280;40050;47.324;18.792;2023-04-23T07:54:13;1001.39;;;21.89;35.28
54144;BME280;40050;47.324;18.792;2023-04-23T07:56:14;1001.33;;;21.98;34.86
54144;BME280;40050;47.324;18.792;2023-04-23T07:58:14;1001.30;;;22.13;35.79
54144;BME280;40050;47.324;18.792;2023-04-23T08:00:15;1001.31;;;22.21;35.76
54144;BME280;40050;47.324;18.792;2023-04-23T08:02:17;1001.32;;;22.13;35.84
54144;BME280;40050;47.324;18.792;2023-04-23T08:04:17;1001.30;;;22.30;35.48
54144;BME280;40050;47.324;18.792;2023-04-23T08:06:18;1001.24;;;22.41;35.12
54144;BME280;40050;47.324;18.792;2023-04-23T08:08:19;1001.27;;;22.54;35.67
54144;BME280;40050;47.324;18.792;2023-04-23T08:10:20;1001.24;;;22.64;34.86
54144;BME280;40050;47.324;18.792;2023-04-23T08:12:21;1001.29;;;22.82;35.14
54144;BME280;40050;47.324;18.792;2023-04-23T08:14:22;1001.28;;;23.00;35.03
54144;BME280;40050;47.324;18.792;2023-04-23T08:16:23;1001.25;;;23.11;34.54
54144;BME280;40050;47.324;18.792;2023-04-23T08:18:24;1001.28;;;23.11;33.91
54144;BME280;40050;47.324;18.792;2023-04-23T08:20:25;1001.29;;;23.27;34.07
54144;BME280;40050;47.324;18.792;2023-04-23T08:22:26;1001.24;;;23.41;34.21
54144;BME280;40050;47.324;18.792;2023-04-23T08:24:27;1001.29;;;23.00;33.69
54144;BME280;40050;47.324;18.792;2023-04-23T08:26:27;1001.28;;;23.26;32.77
54144;BME280;40050;47.324;18.792;2023-04-23T08:28:28;1001.25;;;23.30;33.15
54144;BME280;40050;47.324;18.792;2023-04-23T08:30:29;1001.17;;;23.51;33.39
54144;BME280;40050;47.324;18.792;2023-04-23T08:32:30;1001.27;;;23.73;33.51
54144;BME280;40050;47.324;18.792;2023-04-23T08:34:31;1001.25;;;23.71;33.22
54144;BME280;40050;47.324;18.792;2023-04-23T08:36:32;1001.21;;;23.79;32.56
54144;BME280;40050;47.324;18.792;2023-04-23T08:38:36;1001.23;;;23.82;32.52
54144;BME280;40050;47.324;18.792;2023-04-23T08:40:37;1001.19;;;23.90;32.37
54144;BME280;40050;47.324;18.792;2023-04-23T08:42:44;1001.18;;;23.89;31.74
54144;BME280;40050;47.324;18.792;2023-04-23T08:44:48;1001.17;;;24.03;32.24
54144;BME280;40050;47.324;18.792;2023-04-23T08:46:52;1001.10;;;24.08;32.17
54144;BME280;40050;47.324;18.792;2023-04-23T08:48:53;1001.13;;;24.24;32.08
54144;BME280;40050;47.324;18.792;2023-04-23T08:50:56;1001.15;;;24.34;31.55
54144;BME280;40050;47.324;18.792;2023-04-23T08:52:57;1001.11;;;24.35;31.16
54144;BME280;40050;47.324;18.792;2023-04-23T08:54:59;1001.04;;;24.02;31.58
54144;BME280;40050;47.324;18.792;2023-04-23T08:57:00;1001.02;;;24.11;31.50
54144;BME280;40050;47.324;18.792;2023-04-23T08:59:05;1001.05;;;24.12;31.82
54144;BME280;40050;47.324;18.792;2023-04-23T09:01:06;1001.07;;;24.41;32.28
54144;BME280;40050;47.324;18.792;2023-04-23T09:03:07;1001.08;;;24.24;31.56
54144;BME280;40050;47.324;18.792;2023-04-23T09:05:08;1001.07;;;24.51;31.28
54144;BME280;40050;47.324;18.792;2023-04-23T09:07:09;1001.00;;;24.64;31.71
54144;BME280;40050;47.324;18.792;2023-04-23T09:09:21;1000.97;;;24.76;31.26
54144;BME280;40050;47.324;18.792;2023-04-23T09:11:26;1000.98;;;24.60;31.33
54144;BME280;40050;47.324;18.792;2023-04-23T09:15:59;1000.97;;;24.90;30.93
54144;BME280;40050;47.324;18.792;2023-04-23T09:18:12;1000.86;;;24.99;31.08
54144;BME280;40050;47.324;18.792;2023-04-23T09:22:58;1000.85;;;25.03;29.97
54144;BME280;40050;47.324;18.792;2023-04-23T09:25:03;1000.89;;;24.98;29.63
54144;BME280;40050;47.324;18.792;2023-04-23T09:27:04;1000.91;;;24.78;30.17
54144;BME280;40050;47.324;18.792;2023-04-23T09:29:05;1000.77;;;24.94;30.53
54144;BME280;40050;47.324;18.792;2023-04-23T09:31:27;1000.85;;;24.97;30.22
54144;BME280;40050;47.324;18.792;2023-04-23T09:33:38;1000.83;;;25.04;30.58
54144;BME280;40050;47.324;18.792;2023-04-23T09:37:52;1000.77;;;25.06;29.88
54144;BME280;40050;47.324;18.792;2023-04-23T09:39:53;1000.82;;;25.04;28.24
54144;BME280;40050;47.324;18.792;2023-04-23T09:42:01;1000.70;;;25.07;29.25
54144;BME280;40050;47.324;18.792;2023-04-23T09:44:16;1000.73;;;25.22;29.08
54144;BME280;40050;47.324;18.792;2023-04-23T09:48:40;1000.69;;;25.24;29.08
54144;BME280;40050;47.324;18.792;2023-04-23T09:51:26;1000.68;;;25.45;28.62
54144;BME280;40050;47.324;18.792;2023-04-23T09:55:05;1000.61;;;25.40;27.28
54144;BME280;40050;47.324;18.792;2023-04-23T09:57:07;1000.63;;;25.55;27.00
54144;BME280;40050;47.324;18.792;2023-04-23T09:59:20;1000.61;;;25.41;26.32
54144;BME280;40050;47.324;18.792;2023-04-23T10:01:27;1000.52;;;25.19;27.29
54144;BME280;40050;47.324;18.792;2023-04-23T10:03:28;1000.52;;;25.36;27.02
54144;BME280;40050;47.324;18.792;2023-04-23T10:05:29;1000.50;;;25.43;26.61
54144;BME280;40050;47.324;18.792;2023-04-23T10:07:31;1000.46;;;25.40;25.99
54144;BME280;40050;47.324;18.792;2023-04-23T10:09:32;1000.48;;;25.13;24.54
54144;BME280;40050;47.324;18.792;2023-04-23T10:11:33;1000.45;;;24.95;24.45
54144;BME280;40050;47.324;18.792;2023-04-23T10:13:34;1000.39;;;25.04;24.85
54144;BME280;40050;47.324;18.792;2023-04-23T10:15:35;1000.40;;;25.25;24.90
54144;BME280;40050;47.324;18.792;2023-04-23T10:17:36;1000.36;;;25.34;24.70
54144;BME280;40050;47.324;18.792;2023-04-23T10:19:38;1000.39;;;25.32;23.89
54144;BME280;40050;47.324;18.792;2023-04-23T10:21:39;1000.33;;;25.16;24.18
54144;BME280;40050;47.324;18.792;2023-04-23T10:23:41;1000.37;;;25.01;24.36
54144;BME280;40050;47.324;18.792;2023-04-23T10:25:43;1000.32;;;24.85;24.73
54144;BME280;40050;47.324;18.792;2023-04-23T10:27:45;1000.34;;;24.99;24.43
54144;BME280;40050;47.324;18.792;2023-04-23T10:29:51;1000.31;;;25.22;24.75
54144;BME280;40050;47.324;18.792;2023-04-23T10:31:54;1000.23;;;25.26;24.48
54144;BME280;40050;47.324;18.792;2023-04-23T10:33:55;1000.15;;;25.18;23.28
54144;BME280;40050;47.324;18.792;2023-04-23T10:35:56;1000.18;;;25.13;24.67
54144;BME280;40050;47.324;18.792;2023-04-23T10:37:57;1000.16;;;25.11;24.71
54144;BME280;40050;47.324;18.792;2023-04-23T10:42:21;1000.19;;;25.06;26.26
54144;BME280;40050;47.324;18.792;2023-04-23T10:44:27;1000.13;;;25.21;24.65
54144;BME280;40050;47.324;18.792;2023-04-23T10:46:32;1000.11;;;24.81;25.03
54144;BME280;40050;47.324;18.792;2023-04-23T10:49:03;1000.17;;;24.58;24.90
54144;BME280;40050;47.324;18.792;2023-04-23T10:51:06;1000.15;;;24.60;24.46
54144;BME280;40050;47.324;18.792;2023-04-23T10:53:07;1000.15;;;24.65;24.84
54144;BME280;40050;47.324;18.792;2023-04-23T10:55:18;1000.14;;;24.53;24.80
54144;BME280;40050;47.324;18.792;2023-04-23T10:57:34;1000.07;;;24.54;25.09
54144;BME280;40050;47.324;18.792;2023-04-23T10:59:51;1000.07;;;24.27;25.25
54144;BME280;40050;47.324;18.792;2023-04-23T11:01:52;1000.13;;;24.37;25.74
54144;BME280;40050;47.324;18.792;2023-04-23T11:03:55;1000.05;;;24.19;25.30
54144;BME280;40050;47.324;18.792;2023-04-23T11:06:00;1000.15;;;24.15;25.41
54144;BME280;40050;47.324;18.792;2023-04-23T11:08:04;1000.11;;;24.53;24.71
54144;BME280;40050;47.324;18.792;2023-04-23T11:10:12;1000.14;;;24.58;24.41
54144;BME280;40050;47.324;18.792;2023-04-23T11:16:47;1000.04;;;24.36;24.96
54144;BME280;40050;47.324;18.792;2023-04-23T11:21:09;1000.06;;;24.63;23.82
54144;BME280;40050;47.324;18.792;2023-04-23T11:23:10;999.96;;;24.80;23.79
54144;BME280;40050;47.324;18.792;2023-04-23T11:25:27;1000.03;;;24.89;23.38
54144;BME280;40050;47.324;18.792;2023-04-23T11:27:28;1000.05;;;24.76;23.98
54144;BME280;40050;47.324;18.792;2023-04-23T11:29:29;1000.01;;;24.44;24.96
54144;BME280;40050;47.324;18.792;2023-04-23T11:31:30;1000.04;;;24.37;25.39
54144;BME280;40050;47.324;18.792;2023-04-23T11:33:32;1000.03;;;24.15;23.58
54144;BME280;40050;47.324;18.792;2023-04-23T11:35:34;999.95;;;24.54;24.08
54144;BME280;40050;47.324;18.792;2023-04-23T11:37:41;999.98;;;24.71;23.90